Terminal Aerodrome Forecast
Issued by NWS Chicago, IL

Home | Current Version | Previous Version | Text Only | Print | Product List | Glossary On
Versions: 1 2 3 4 5 6 7 8 9 10 11 12 13 14 15 16 17 18 19 20 21 22 23 24 25 26 27 28 29 30 31 32 33 34 35 36 37 38
000
FTUS43 KLOT 231000 AAC
TAFRFD
TAF AMD
KRFD 231024Z 2310/2406 00000KT 3SM BR BCFG FEW005 BKN020 BKN200
     FM231130 VRB02KT 2SM BR BKN005
     FM231400 10006KT P6SM SCT010 BKN200
     FM231800 10008KT P6SM BKN040=

USA.gov is the U.S. government's official web portal to all federal, state and local government web resources and services.